Flight Track Log - Related Links

Times and Time Zones

All times are in EDT time to prevent confusion due to time zone crossing. See the SWA1086 flight status page for this flight to view local times or setup timezone preferences in your user account.

Time Position Orientation Groundspeed Altitude Reporting Facility
EDT Latitude Longitude Course Direction KTS MPH feet Rate Location/Type
Fri 11:03:30 AM 35.4103 -97.6250 356° North 154 177 2,200  Level Fort Center
Fri 11:04:13 AM 35.4414 -97.6275 356° North 188 216 3,500 2,267 Climbing Fort Center
Fri 11:05:45 AM 35.5333 -97.6006 13° North 226 260 7,300 2,727 Climbing Kansas Center
Fri 11:06:47 AM 35.6136 -97.5983 North 278 320 10,500 2,661 Climbing Kansas Center
Fri 11:07:49 AM 35.7053 -97.5953 North 314 361 12,800 2,585 Climbing Kansas Center
Fri 11:08:50 AM 35.8008 -97.5914 North 337 388 15,800 2,537 Climbing Kansas Center
Fri 11:09:52 AM 35.8981 -97.5608 14° North 359 413 18,000 2,371 Climbing Kansas Center
Fri 11:10:54 AM 36.0167 -97.5053 21° North 377 434 20,700 2,323 Climbing Kansas Center
Fri 11:11:56 AM 36.1203 -97.4569 21° North 389 448 22,800 1,935 Climbing Kansas Center
Fri 11:12:58 AM 36.2250 -97.4078 21° North 398 458 24,700 1,597 Climbing Kansas Center
Fri 11:14:00 AM 36.3339 -97.3539 22° Northeast 414 476 26,100 1,452 Climbing Kansas Center
Fri 11:15:02 AM 36.4458 -97.3017 21° North 424 488 27,700 1,366 Climbing Kansas Center
Fri 11:16:03 AM 36.5606 -97.2503 20° North 431 496 28,900 634 Climbing Kansas Center
Fri 11:17:05 AM 36.6731 -97.1958 21° North 434 499 29,000 48 Climbing Kansas Center
Fri 11:18:07 AM 36.8056 -97.1231 24° Northeast 436 502 29,000  Level Kansas Center
Fri 11:19:09 AM 36.9083 -97.0544 28° Northeast 435 501 29,000  Level Kansas Center
Fri 11:20:11 AM 37.0142 -96.9839 28° Northeast 433 498 29,000  Level Kansas Center
Fri 11:21:13 AM 37.1192 -96.9169 27° Northeast 429 494 29,000  Level Kansas Center
Fri 11:22:15 AM 37.2247 -96.8464 28° Northeast 430 495 29,000  Level Kansas Center
Fri 11:23:17 AM 37.3500 -96.7650 27° Northeast 426 490 29,000  Level Kansas Center
Fri 11:24:19 AM 37.4550 -96.6956 28° Northeast 426 490 29,000  Level Kansas Center
Fri 11:25:21 AM 37.5606 -96.6247 28° Northeast 429 494 29,000  Level Kansas Center
Fri 11:26:23 AM 37.6606 -96.5308 37° Northeast 444 511 29,000  Level Kansas Center
Fri 11:27:25 AM 37.7628 -96.4361 36° Northeast 454 522 29,000  Level Kansas Center
Fri 11:28:27 AM 37.8686 -96.3356 37° Northeast 471 542 29,000  Level Kansas Center
Fri 11:29:29 AM 37.9947 -96.2136 37° Northeast 476 548 29,000  Level Kansas Center
Fri 11:30:31 AM 38.1042 -96.1092 37° Northeast 474 545 29,000 -194 Level Kansas Center
Fri 11:31:33 AM 38.2033 -96.0133 37° Northeast 469 540 28,600 -1,742 Descending Kansas Center
Fri 11:32:35 AM 38.3169 -95.9014 38° Northeast 465 535 25,400 -2,758 Descending Kansas Center
Fri 11:33:37 AM 38.4119 -95.8094 37° Northeast 450 518 22,900 -2,613 Descending Kansas Center
Fri 11:34:39 AM 38.5169 -95.7061 38° Northeast 428 493 20,000 -2,468 Descending Kansas Center
Fri 11:35:41 AM 38.6014 -95.6228 38° Northeast 407 468 17,800 -2,226 Descending Kansas Center
Fri 11:36:43 AM 38.6839 -95.5419 37° Northeast 391 450 15,400 -2,419 Descending Kansas Center
Fri 11:37:45 AM 38.7733 -95.4508 38° Northeast 371 427 12,800 -1,645 Descending Kansas Center
Fri 11:38:47 AM 38.8408 -95.3708 43° Northeast 346 398 12,000 -912 Descending Kansas Center
Fri 11:39:50 AM 38.9083 -95.2747 48° Northeast 327 376 10,900 -1,008 Descending Kansas Center
Fri 11:40:52 AM 38.9403 -95.1839 66° East 293 337 9,900 -1,355 Descending Kansas Center
Fri 11:41:54 AM 38.9667 -95.0803 72° East 280 322 8,100 -919 Descending Kansas Center
Fri 11:42:56 AM 38.9581 -94.9897 97° East 268 308 8,000 -1,016 Descending Kansas Center
Fri 11:43:58 AM 38.9697 -94.8917 81° East 259 298 6,000 -1,452 Descending Kansas Center
Fri 11:45:00 AM 39.0139 -94.8306 47° Northeast 247 284 5,000 -484 Descending Kansas Center
Fri 11:46:02 AM 39.0736 -94.7936 26° Northeast 215 247 5,000 -290 Level Kansas Center
Fri 11:47:04 AM 39.1267 -94.7786 12° North 205 236 4,400 -871 Descending Kansas Center
Fri 11:48:06 AM 39.1872 -94.7606 13° North 200 230 3,200 -1,016 Descending Kansas Center
Fri 11:49:08 AM 39.2303 -94.7481 13° North 172 198 2,300 -823 Descending Kansas Center
Fri 11:50:10 AM 39.2697 -94.7361 13° North 133 153 1,500 -629 Descending Kansas Center
Fri 11:51:12 AM 39.3081 -94.7244 13° North 132 152 1,000 -484 Descending Kansas Center

Login

Don't have an account? Register now (free) for customized features, flight alerts, and more!